createdAt,value
2018-04-22T14:16:02.097Z,37.55
2018-04-22T14:18:29.720Z,36.88
2018-04-22T14:20:57.382Z,36.37
2018-04-22T14:23:24.931Z,37.39
2018-04-22T14:25:52.482Z,37.38
2018-04-22T14:28:20.891Z,36.77
2018-04-22T14:30:49.010Z,36.58
2018-04-22T14:33:16.671Z,36.56
2018-04-22T14:35:44.258Z,34.73
2018-04-22T14:38:11.807Z,35.04
2018-04-22T14:40:39.415Z,35.42
2018-04-22T14:43:07.029Z,35.53
2018-04-22T14:45:46.379Z,36.34
2018-04-22T14:48:13.932Z,35.61
2018-04-22T14:50:42.466Z,35.90
2018-04-22T14:53:10.995Z,34.56
2018-04-22T14:55:38.538Z,35.20
2018-04-22T14:58:06.121Z,35.18
2018-04-22T15:00:33.978Z,34.71
2018-04-22T15:03:01.653Z,35.14
2018-04-22T15:05:29.234Z,36.22
2018-04-22T15:07:56.823Z,36.33
2018-04-22T15:10:24.479Z,35.39
2018-04-22T15:12:52.501Z,35.49
2018-04-22T15:15:20.155Z,35.37
2018-04-22T15:17:47.741Z,33.10
2018-04-22T15:20:15.285Z,33.77
2018-04-22T15:22:43.166Z,33.47
2018-04-22T15:25:10.763Z,34.07
2018-04-22T15:27:38.523Z,34.70
2018-04-22T15:30:06.631Z,34.17
2018-04-22T15:32:34.542Z,33.87
2018-04-22T15:35:02.174Z,34.37
2018-04-22T15:37:31.121Z,34.35
2018-04-22T15:39:59.165Z,34.51
2018-04-22T15:42:27.004Z,34.28
2018-04-22T15:44:55.642Z,34.14
2018-04-22T15:47:23.493Z,33.29
2018-04-22T15:49:51.932Z,32.77
2018-04-22T15:52:20.214Z,32.37
2018-04-22T15:54:47.813Z,32.38
2018-04-22T15:57:16.131Z,32.32
2018-04-22T15:59:43.738Z,32.65
2018-04-22T16:02:11.618Z,33.26
2018-04-22T16:04:39.286Z,33.49
2018-04-22T16:07:06.891Z,33.52
2018-04-22T16:09:34.927Z,33.84
2018-04-22T16:12:03.305Z,34.11
2018-04-22T16:14:31.016Z,33.39
2018-04-22T16:16:59.034Z,33.20
2018-04-22T16:19:26.591Z,33.25
2018-04-22T16:21:54.725Z,33.32
2018-04-22T16:24:22.276Z,33.34
2018-04-22T16:26:50.619Z,32.74
2018-04-22T16:29:19.054Z,32.77
2018-04-22T16:31:47.571Z,32.84
2018-04-22T16:34:15.121Z,32.13
2018-04-22T16:36:42.938Z,30.60
2018-04-22T16:39:10.599Z,29.22
2018-04-22T16:41:38.209Z,27.96
2018-04-22T16:44:05.818Z,27.22
2018-04-22T16:46:33.413Z,26.44
2018-04-22T16:49:01.884Z,25.86
2018-04-22T16:51:29.437Z,25.54
2018-04-22T16:53:57.030Z,25.16
2018-04-22T16:56:24.586Z,24.74
2018-04-22T16:58:53.126Z,24.39
2018-04-22T17:01:22.634Z,23.96
2018-04-22T17:03:50.182Z,23.55
2018-04-22T17:06:19.430Z,23.16
2018-04-22T17:08:48.906Z,22.86
2018-04-22T17:11:16.454Z,22.58
2018-04-22T17:13:43.997Z,22.32
2018-04-22T17:16:11.966Z,22.08
2018-04-22T17:18:39.506Z,21.93
2018-04-22T17:21:07.161Z,21.68
2018-04-22T17:23:34.822Z,21.50
2018-04-22T17:26:02.480Z,21.32
2018-04-22T17:28:30.926Z,21.19
2018-04-22T17:30:58.473Z,21.09
2018-04-22T17:33:26.130Z,20.96
2018-04-22T17:35:53.683Z,20.86
2018-04-22T17:38:22.195Z,20.71
2018-04-22T17:40:51.393Z,20.60
2018-04-22T17:43:18.945Z,20.41
2018-04-22T17:45:46.746Z,20.30
2018-04-22T17:48:14.703Z,20.18
2018-04-22T17:50:42.293Z,20.07
2018-04-22T17:53:09.937Z,19.98
2018-04-22T17:55:37.559Z,19.93
2018-04-22T17:58:06.158Z,19.91
2018-04-22T18:00:33.785Z,19.86
2018-04-22T18:03:01.426Z,19.64
2018-04-22T18:05:29.699Z,19.44
2018-04-22T18:07:59.055Z,19.24
2018-04-22T18:10:26.635Z,19.16
2018-04-22T18:12:54.232Z,19.20
2018-04-22T18:15:21.835Z,19.16
2018-04-22T18:17:49.387Z,19.10
2018-04-22T18:20:16.973Z,19.09
2018-04-22T18:22:44.561Z,19.05
2018-04-22T18:25:12.110Z,18.91
2018-04-22T18:27:39.711Z,18.86
2018-04-22T18:30:07.954Z,18.86
2018-04-22T18:32:36.469Z,18.72
2018-04-22T18:35:04.079Z,18.53
2018-04-22T18:37:31.690Z,18.31
2018-04-22T18:39:59.295Z,18.30
2018-04-22T18:42:26.846Z,18.24
2018-04-22T18:44:54.458Z,18.24
2018-04-22T18:47:22.062Z,18.27
2018-04-22T18:49:50.478Z,18.22
2018-04-22T18:52:18.093Z,18.12
2018-04-22T18:54:45.699Z,18.03
2018-04-22T18:57:13.306Z,17.83
2018-04-22T18:59:41.910Z,17.73
2018-04-22T19:02:09.481Z,17.66
2018-04-22T19:04:38.019Z,17.48
2018-04-22T19:07:05.593Z,17.37
2018-04-22T19:09:33.221Z,17.30
2018-04-22T19:12:00.791Z,17.20
2018-04-22T19:14:28.402Z,17.13
2018-04-22T19:16:56.013Z,17.06
2018-04-22T19:19:23.608Z,17.13
2018-04-22T19:21:51.149Z,17.27
2018-04-22T19:24:18.737Z,17.36
2018-04-22T19:26:46.375Z,17.36
2018-04-22T19:29:13.958Z,17.28
2018-04-22T19:31:41.545Z,17.20
2018-04-22T19:34:09.179Z,17.05
2018-04-22T19:36:36.791Z,16.92
2018-04-22T19:39:04.448Z,16.82
2018-04-22T19:41:31.998Z,16.65
2018-04-22T19:43:59.611Z,16.50
2018-04-22T19:46:27.205Z,16.47
2018-04-22T19:48:54.879Z,16.16
2018-04-22T19:51:22.422Z,16.11
2018-04-22T19:53:50.027Z,16.02
2018-04-22T19:56:18.189Z,16.06
2018-04-22T19:58:45.802Z,16.07
2018-04-22T20:01:13.721Z,16.04
2018-04-22T20:03:41.314Z,15.93
2018-04-22T20:06:09.252Z,15.91
2018-04-22T20:08:36.858Z,15.73
2018-04-22T20:11:04.405Z,15.57
2018-04-22T20:13:32.827Z,15.39
2018-04-22T20:16:01.099Z,15.29
2018-04-22T20:18:29.547Z,15.32
2018-04-22T20:20:57.158Z,15.17
2018-04-22T20:23:25.580Z,15.19
2018-04-22T20:25:53.599Z,15.20
2018-04-22T20:28:22.507Z,15.18
2018-04-22T20:30:50.137Z,15.13
2018-04-22T20:33:17.684Z,15.17
2018-04-22T20:35:46.069Z,15.33
2018-04-22T20:38:13.734Z,15.49
2018-04-22T20:40:41.332Z,15.66
2018-04-22T20:43:08.934Z,15.80
2018-04-22T20:45:36.506Z,15.90
2018-04-22T20:48:04.728Z,15.87
2018-04-22T20:50:32.283Z,15.68
2018-04-22T20:52:59.931Z,15.31
2018-04-22T20:55:27.478Z,15.13
2018-04-22T20:57:55.076Z,14.85
2018-04-22T21:00:22.835Z,14.62
2018-04-22T21:02:50.445Z,14.45
2018-04-22T21:05:17.993Z,14.26
2018-04-22T21:07:45.602Z,14.20
2018-04-22T21:10:13.305Z,14.07
2018-04-22T21:12:40.923Z,13.93
2018-04-22T21:15:08.470Z,14.04
2018-04-22T21:17:36.062Z,14.22
2018-04-22T21:20:03.675Z,14.33
2018-04-22T21:22:31.339Z,14.44
2018-04-22T21:24:58.945Z,14.45
2018-04-22T21:27:27.374Z,14.37
2018-04-22T21:29:54.986Z,14.28
2018-04-22T21:32:22.597Z,14.10
2018-04-22T21:34:50.251Z,14.00
2018-04-22T21:37:18.291Z,14.06
2018-04-22T21:39:45.943Z,14.13
2018-04-22T21:42:13.567Z,14.20
2018-04-22T21:44:41.172Z,14.14
2018-04-22T21:47:08.713Z,14.05
2018-04-22T21:49:36.614Z,13.91
2018-04-22T21:52:04.159Z,13.82
2018-04-22T21:54:32.513Z,13.75
2018-04-22T21:57:01.611Z,13.67
2018-04-22T21:59:29.285Z,13.71
2018-04-22T22:01:56.835Z,13.75
2018-04-22T22:04:24.426Z,13.72
2018-04-22T22:06:53.022Z,13.73
2018-04-22T22:09:20.613Z,13.69
2018-04-22T22:11:48.222Z,13.74
2018-04-22T22:14:15.887Z,13.77
2018-04-22T22:16:43.437Z,13.67
2018-04-22T22:19:11.978Z,13.57
2018-04-22T22:21:39.595Z,13.43
2018-04-22T22:24:07.203Z,13.44
2018-04-22T22:26:34.749Z,13.47
2018-04-22T22:29:02.348Z,13.57
2018-04-22T22:31:29.958Z,13.65
2018-04-22T22:33:57.699Z,13.67
2018-04-22T22:36:25.307Z,13.65
2018-04-22T22:38:52.895Z,13.50
2018-04-22T22:41:20.603Z,13.24
2018-04-22T22:43:48.965Z,13.06
2018-04-22T22:46:16.590Z,12.96
2018-04-22T22:48:44.226Z,12.83
2018-04-22T22:51:11.784Z,12.75
2018-04-22T22:53:39.370Z,12.64
2018-04-22T22:56:07.027Z,12.67
2018-04-22T22:58:34.634Z,12.90
2018-04-22T23:01:02.246Z,13.04
2018-04-22T23:03:29.870Z,13.10
2018-04-22T23:05:57.474Z,13.27
2018-04-22T23:08:25.018Z,13.27
2018-04-22T23:10:52.682Z,13.28
2018-04-22T23:13:20.285Z,13.24
2018-04-22T23:15:47.893Z,13.13
2018-04-22T23:18:15.438Z,12.99
2018-04-22T23:20:43.058Z,12.64
2018-04-22T23:23:10.707Z,12.41
2018-04-22T23:25:38.258Z,12.44
2018-04-22T23:28:05.849Z,12.36
2018-04-22T23:30:33.503Z,12.38
2018-04-22T23:33:01.055Z,12.36
2018-04-22T23:35:28.641Z,12.28
2018-04-22T23:37:57.188Z,12.20
2018-04-22T23:40:24.867Z,12.13
2018-04-22T23:42:52.494Z,12.27
2018-04-22T23:45:20.042Z,12.70
2018-04-22T23:47:47.703Z,12.92
2018-04-22T23:50:15.271Z,13.02
2018-04-22T23:52:42.936Z,13.12
2018-04-22T23:55:10.534Z,13.15
2018-04-22T23:57:38.147Z,13.14
